McChord Air Force Base
KTCM : now visible

Airfield :











YOU CAN JOIN US ON...

 
LOGIN :

Register | Disclaimer

   EN    FR    IT 

 









Legend :    VFR   Marginal VFR   IFR   Intensive IFR   Very Intensive IFR
Visi :
Ceiling :
>= 8 km
>= 3000ft
5 to 8 km
1000 to 3000 ft
1500m to 5 km
500 to 1000 ft
800 to 1500m
200 to 500 ft
< 800m
< 200 ft
Symbols :   Thunderstorms  Fog  Heavy snow  Heavy precipitations  Wind > 20 kt







- Airport Elevation : 322 ft


KTCM - McChord Air Force Base

CURRENT METAR :
  • 200858Z AUTO 22005KT 10SM OVC009 15/15 A3007 RMK AO2 SLP186 T01480148 50004 $

EXPIRED METARs :
  • 200820Z AUTO 23007KT 10SM OVC009 15/15 A3007 RMK AO2 SLP186 $
  • 200758Z AUTO 20005KT 10SM OVC014 15/15 A3007 RMK AO2 CIG 012 RWY16 SLP186 T01490149 402160065 $
  • 200728Z AUTO 19005KT 10SM OVC014 15/15 A3007 RMK AO2 CIG 013 RWY16 SLP186 $
  • 200633Z AUTO 20003KT 10SM OVC019 15/15 A3006 RMK AO2 CIG 018 RWY16 SLP183 $

TAF AMD TAF KTCM
Valid from the 20 at 08:00 until the 21 at 11:00 UTC


200848Z 2008/2111 VRB06KT 9999 OVC009 QNH3006INS
BECMG 2015/2016 21006KT 6000 BR OVC015 QNH3008INS
BECMG 2017/2018 21006KT 9999 NSW BKN020 OVC050 QNH3009INS
BECMG 2020/2021 22009KT 9999 SCT020 BKN035 QNH3009INS TX20/2023Z TN10/2013Z
No reported NOTAMs for that airfield.



MET'MAP, your aeronautical weather chart ! - Copyright ORBIFLY December 2007 - Disclaimer

ORBIFLY MET'MAP TEAM :

Programming & Development : Alexandra Zaïnal
Concept & Development : Baudouin d'Aumeries
Co-Development & Prog : Marc-Olivier Méhu
Technical & hardware support : Manuel Goepfert

Contact : metmap@orbifly.com




SOURCES & CREDITS :

   NOAA       Earth
Advisory